createdAt,value
2023-03-26T00:00:48.689Z,8.43
2023-03-26T00:03:17.378Z,8.42
2023-03-26T00:05:46.564Z,8.42
2023-03-26T00:08:13.277Z,8.41
2023-03-26T00:10:41.653Z,8.39
2023-03-26T00:13:09.191Z,8.38
2023-03-26T00:15:37.084Z,8.38
2023-03-26T00:18:04.141Z,8.35
2023-03-26T00:20:32.884Z,8.36
2023-03-26T00:23:01.633Z,8.36
2023-03-26T00:25:29.704Z,8.34
2023-03-26T00:27:56.337Z,8.32
2023-03-26T00:30:23.220Z,8.32
2023-03-26T00:32:53.492Z,8.31
2023-03-26T00:35:20.949Z,8.31
2023-03-26T00:37:47.920Z,8.30
2023-03-26T00:40:14.652Z,8.29
2023-03-26T00:42:42.568Z,8.27
2023-03-26T00:45:09.586Z,8.26
2023-03-26T00:47:36.576Z,8.24
2023-03-26T00:50:04.339Z,8.22
2023-03-26T00:52:31.871Z,8.18
2023-03-26T00:54:58.524Z,8.17
2023-03-26T00:57:42.722Z,8.16
2023-03-26T01:00:15.297Z,8.15
2023-03-26T01:02:45.228Z,8.15
2023-03-26T01:05:34.766Z,8.13
2023-03-26T01:08:24.128Z,8.11
2023-03-26T01:10:52.178Z,8.10
2023-03-26T01:13:23.001Z,8.06
2023-03-26T01:15:51.360Z,8.06
2023-03-26T01:18:22.034Z,8.05
2023-03-26T01:20:51.168Z,8.05
2023-03-26T01:23:24.670Z,8.04
2023-03-26T01:26:12.247Z,8.03
2023-03-26T01:28:41.392Z,8.04
2023-03-26T01:31:25.490Z,8.03
2023-03-26T01:34:03.971Z,8.03
2023-03-26T01:36:46.858Z,8.04
2023-03-26T01:39:25.345Z,8.07
2023-03-26T01:41:57.135Z,8.06
2023-03-26T01:44:31.441Z,8.06
2023-03-26T01:49:29.209Z,8.07
2023-03-26T01:51:58.089Z,8.09
2023-03-26T01:54:27.406Z,8.08
2023-03-26T01:57:17.959Z,8.08
2023-03-26T02:00:11.391Z,8.08
2023-03-26T02:02:55.022Z,8.07
2023-03-26T02:05:29.152Z,8.06
2023-03-26T02:08:21.013Z,8.05
2023-03-26T02:10:52.975Z,8.06
2023-03-26T02:13:20.182Z,8.04
2023-03-26T02:16:01.775Z,8.03
2023-03-26T02:18:36.499Z,8.03
2023-03-26T02:21:13.935Z,8.02
2023-03-26T02:23:42.548Z,8.01
2023-03-26T02:26:11.254Z,8.01
2023-03-26T02:28:38.431Z,8.01
2023-03-26T02:31:06.658Z,7.99
2023-03-26T02:33:33.298Z,7.97
2023-03-26T02:36:02.136Z,7.96
2023-03-26T02:38:30.477Z,7.97
2023-03-26T02:40:57.685Z,7.99
2023-03-26T02:43:24.371Z,7.99
2023-03-26T02:45:51.376Z,7.97
2023-03-26T02:48:18.463Z,7.99
2023-03-26T02:50:46.066Z,8.00
2023-03-26T02:53:13.712Z,8.01
2023-03-26T02:55:40.567Z,8.01
2023-03-26T02:58:08.334Z,8.01
2023-03-26T03:00:35.368Z,8.02
2023-03-26T03:03:04.061Z,8.04
2023-03-26T03:05:32.371Z,8.05
2023-03-26T03:07:59.736Z,8.09
2023-03-26T03:10:28.598Z,8.09
2023-03-26T03:12:55.345Z,8.09
2023-03-26T03:15:21.931Z,8.11
2023-03-26T03:17:48.618Z,8.10
2023-03-26T03:20:16.711Z,8.10
2023-03-26T03:22:43.682Z,8.11
2023-03-26T03:25:14.361Z,8.13
2023-03-26T03:27:42.941Z,8.15
2023-03-26T03:30:13.443Z,8.16
2023-03-26T03:32:40.252Z,8.17
2023-03-26T03:35:07.535Z,8.18
2023-03-26T03:37:34.440Z,8.18
2023-03-26T03:40:01.092Z,8.19
2023-03-26T03:42:27.779Z,8.21
2023-03-26T03:44:54.491Z,8.20
2023-03-26T03:47:23.093Z,8.23
2023-03-26T03:49:50.290Z,8.28
2023-03-26T03:52:19.246Z,8.35
2023-03-26T03:54:45.848Z,8.39
2023-03-26T03:57:12.534Z,8.40
2023-03-26T03:59:39.134Z,8.41
2023-03-26T04:02:21.366Z,8.42
2023-03-26T04:04:50.366Z,8.42
2023-03-26T04:07:17.051Z,8.44
2023-03-26T04:09:43.644Z,8.44
2023-03-26T04:12:10.548Z,8.48
2023-03-26T04:14:37.123Z,8.48
2023-03-26T04:17:05.405Z,8.48
2023-03-26T04:19:32.070Z,8.48
2023-03-26T04:22:02.809Z,8.49
2023-03-26T04:24:29.982Z,8.49
2023-03-26T04:27:01.018Z,8.51
2023-03-26T04:29:30.727Z,8.50
2023-03-26T04:31:58.930Z,8.52
2023-03-26T04:34:25.890Z,8.53
2023-03-26T04:36:54.713Z,8.54
2023-03-26T04:39:22.835Z,8.54
2023-03-26T04:41:49.408Z,8.55
2023-03-26T04:44:17.205Z,8.52
2023-03-26T04:46:45.278Z,8.53
2023-03-26T04:49:12.075Z,8.54
2023-03-26T04:51:41.909Z,8.55
2023-03-26T04:54:12.723Z,8.54
2023-03-26T04:56:47.892Z,8.55
2023-03-26T04:59:18.991Z,8.54
2023-03-26T05:01:46.683Z,8.54
2023-03-26T05:04:13.718Z,8.53
2023-03-26T05:06:41.871Z,8.52
2023-03-26T05:09:10.640Z,8.50
2023-03-26T05:11:37.261Z,8.49
2023-03-26T05:14:04.008Z,8.48
2023-03-26T05:16:31.855Z,8.48
2023-03-26T05:18:58.629Z,8.48
2023-03-26T05:21:25.442Z,8.49
2023-03-26T05:23:52.138Z,8.47
2023-03-26T05:26:19.194Z,8.47
2023-03-26T05:28:45.944Z,8.48
2023-03-26T05:31:13.938Z,8.50
2023-03-26T05:33:40.604Z,8.51
2023-03-26T05:36:13.421Z,8.54
2023-03-26T05:38:40.223Z,8.51
2023-03-26T05:41:08.940Z,8.50
2023-03-26T05:43:36.307Z,8.51
2023-03-26T05:46:03.765Z,8.51
2023-03-26T05:48:30.829Z,8.52
2023-03-26T05:50:58.527Z,8.54
2023-03-26T05:53:27.210Z,8.54
2023-03-26T05:55:58.117Z,8.54
2023-03-26T05:58:27.579Z,8.55
2023-03-26T06:01:08.522Z,8.56
2023-03-26T06:03:39.272Z,8.59
2023-03-26T06:06:08.846Z,8.61
2023-03-26T06:08:35.590Z,8.62
2023-03-26T06:11:05.594Z,8.64
2023-03-26T06:13:32.184Z,8.64
2023-03-26T06:15:58.924Z,8.66
2023-03-26T06:18:26.696Z,8.65
2023-03-26T06:20:53.810Z,8.66
2023-03-26T06:23:23.315Z,8.67
2023-03-26T06:25:49.965Z,8.69
2023-03-26T06:28:16.870Z,8.70
2023-03-26T06:30:43.625Z,8.72
2023-03-26T06:33:11.013Z,8.73
2023-03-26T06:35:37.709Z,8.75
2023-03-26T06:38:05.357Z,8.78
2023-03-26T06:40:32.773Z,8.79
2023-03-26T06:43:09.448Z,8.80
2023-03-26T06:45:38.335Z,8.82
2023-03-26T06:48:05.885Z,8.81
2023-03-26T06:50:33.064Z,8.82
2023-03-26T06:53:00.375Z,8.83
2023-03-26T06:55:28.947Z,8.84
2023-03-26T06:57:57.015Z,8.84
2023-03-26T07:00:24.361Z,8.86
2023-03-26T07:02:50.969Z,8.86
2023-03-26T07:05:17.701Z,8.85
2023-03-26T07:07:46.723Z,8.87
2023-03-26T07:10:14.441Z,8.89
2023-03-26T07:12:42.515Z,8.90
2023-03-26T07:15:10.496Z,8.91
2023-03-26T07:17:37.416Z,8.92
2023-03-26T07:20:06.513Z,8.93
2023-03-26T07:22:33.397Z,8.96
2023-03-26T07:25:00.304Z,8.97
2023-03-26T07:27:36.200Z,9.00
2023-03-26T07:30:12.160Z,9.01
2023-03-26T07:33:03.791Z,9.03
2023-03-26T07:35:41.692Z,9.05
2023-03-26T07:38:33.084Z,9.03
2023-03-26T07:41:07.078Z,9.02
2023-03-26T07:43:53.675Z,9.04
2023-03-26T07:46:27.790Z,9.09
2023-03-26T07:48:57.671Z,9.09
2023-03-26T07:51:24.943Z,9.06
2023-03-26T07:53:54.143Z,9.09
2023-03-26T07:56:29.297Z,9.12
2023-03-26T07:59:12.743Z,9.19
2023-03-26T08:02:05.350Z,9.18
2023-03-26T08:04:41.604Z,9.22
2023-03-26T08:07:16.421Z,9.20
2023-03-26T08:09:54.353Z,9.23
2023-03-26T08:13:04.172Z,9.26
2023-03-26T08:15:38.161Z,9.28
2023-03-26T08:18:27.633Z,9.29
2023-03-26T08:21:01.036Z,9.30
2023-03-26T08:23:36.396Z,9.30
2023-03-26T08:26:39.897Z,9.33
2023-03-26T08:29:15.898Z,9.37
2023-03-26T08:31:45.011Z,9.34
2023-03-26T08:34:14.598Z,9.34
2023-03-26T08:36:41.346Z,9.34
2023-03-26T08:39:09.000Z,9.33
2023-03-26T08:42:29.172Z,9.31
2023-03-26T08:45:14.836Z,9.24
2023-03-26T08:47:48.521Z,9.21
2023-03-26T08:50:57.935Z,9.14
2023-03-26T08:53:52.757Z,9.12
2023-03-26T08:56:53.728Z,9.12
2023-03-26T09:00:18.264Z,9.12
2023-03-26T09:03:12.660Z,9.06
2023-03-26T09:06:13.502Z,9.07
2023-03-26T09:09:19.140Z,9.01
2023-03-26T09:12:04.409Z,8.99
2023-03-26T09:14:54.665Z,9.00
2023-03-26T09:17:50.049Z,9.00
2023-03-26T09:20:48.422Z,8.98
2023-03-26T09:23:33.889Z,8.95
2023-03-26T09:29:51.262Z,8.98
2023-03-26T09:32:26.144Z,9.01
2023-03-26T09:35:02.355Z,9.03
2023-03-26T09:37:56.374Z,9.05
2023-03-26T09:40:38.199Z,9.05
2023-03-26T09:43:29.695Z,9.02
2023-03-26T09:46:15.029Z,9.05
2023-03-26T09:49:13.678Z,9.03
2023-03-26T09:51:50.390Z,8.96
2023-03-26T09:54:54.988Z,8.94
2023-03-26T09:57:23.679Z,8.96
2023-03-26T10:00:00.142Z,8.99
2023-03-26T10:02:46.288Z,9.00
2023-03-26T10:05:23.717Z,9.01
2023-03-26T10:08:21.413Z,8.94
2023-03-26T10:11:22.717Z,8.90
2023-03-26T10:14:18.900Z,8.89
2023-03-26T10:16:59.998Z,8.89
2023-03-26T10:19:45.689Z,8.92
2023-03-26T10:22:14.408Z,8.93
2023-03-26T10:25:01.914Z,8.91
2023-03-26T10:27:37.661Z,8.89
2023-03-26T10:30:23.689Z,8.92
2023-03-26T10:33:01.969Z,8.90
2023-03-26T10:35:53.764Z,8.94
2023-03-26T10:39:02.256Z,8.90
2023-03-26T10:41:32.643Z,8.88
2023-03-26T10:44:08.855Z,8.86
2023-03-26T10:46:50.404Z,8.78
2023-03-26T10:49:32.754Z,8.68
2023-03-26T10:52:05.010Z,8.67
2023-03-26T10:55:00.537Z,8.69
2023-03-26T10:57:38.511Z,8.65
2023-03-26T11:00:16.072Z,8.68
2023-03-26T11:02:54.490Z,8.69
2023-03-26T11:05:32.969Z,8.63
2023-03-26T11:08:07.179Z,8.61
2023-03-26T11:10:45.816Z,8.62
2023-03-26T11:13:25.476Z,8.63
2023-03-26T11:15:58.910Z,8.64
2023-03-26T11:18:59.339Z,8.60
2023-03-26T11:21:44.592Z,8.61
2023-03-26T11:24:35.131Z,8.58
2023-03-26T11:27:14.873Z,8.58
2023-03-26T11:29:51.813Z,8.65
2023-03-26T11:32:24.720Z,8.73
2023-03-26T11:35:04.163Z,8.68
2023-03-26T11:37:41.576Z,8.61
2023-03-26T11:40:16.514Z,8.56
2023-03-26T11:42:43.917Z,8.56
2023-03-26T11:45:20.915Z,8.52
2023-03-26T11:48:10.280Z,8.51
2023-03-26T11:50:44.481Z,8.51
2023-03-26T11:53:14.647Z,8.55
2023-03-26T11:55:48.021Z,8.60
2023-03-26T11:58:35.058Z,8.59
2023-03-26T12:01:05.535Z,8.48
2023-03-26T12:03:32.291Z,8.51
2023-03-26T12:05:59.854Z,8.56
2023-03-26T12:08:34.092Z,8.55
2023-03-26T12:11:06.547Z,8.65
2023-03-26T12:13:41.920Z,8.70
2023-03-26T12:16:14.045Z,8.64
2023-03-26T12:18:43.908Z,8.67
2023-03-26T12:21:14.024Z,8.70
2023-03-26T12:23:56.428Z,8.70
2023-03-26T12:26:36.921Z,8.73
2023-03-26T12:29:13.344Z,8.80
2023-03-26T12:31:57.895Z,8.85
2023-03-26T12:34:31.771Z,8.91
2023-03-26T12:37:00.990Z,8.95
2023-03-26T12:40:09.350Z,9.00
2023-03-26T12:44:46.258Z,9.02
2023-03-26T12:45:14.871Z,9.09
2023-03-26T12:48:01.349Z,9.20
2023-03-26T12:50:45.645Z,9.30
2023-03-26T12:53:26.016Z,9.30
2023-03-26T12:56:01.452Z,9.27
2023-03-26T12:58:28.563Z,9.29
2023-03-26T13:01:06.734Z,9.28
2023-03-26T13:03:41.986Z,9.32
2023-03-26T13:06:31.326Z,9.32
2023-03-26T13:09:32.936Z,9.32
2023-03-26T13:12:18.319Z,9.38
2023-03-26T13:14:52.048Z,9.45
2023-03-26T13:17:31.166Z,9.52
2023-03-26T13:20:07.270Z,9.49
2023-03-26T13:22:46.217Z,9.52
2023-03-26T13:25:26.701Z,9.48
2023-03-26T13:28:17.083Z,9.49
2023-03-26T13:31:15.271Z,9.47
2023-03-26T13:34:00.442Z,9.52
2023-03-26T13:36:51.889Z,9.54
2023-03-26T13:39:54.773Z,9.62
2023-03-26T13:42:41.474Z,9.71
2023-03-26T13:49:26.523Z,9.69
2023-03-26T13:52:00.206Z,9.70
2023-03-26T13:54:33.005Z,9.68
2023-03-26T14:00:34.256Z,9.59
2023-03-26T14:03:09.918Z,9.66
2023-03-26T14:06:24.957Z,9.70
2023-03-26T14:09:23.281Z,9.61
2023-03-26T14:11:58.107Z,9.62
2023-03-26T14:14:53.349Z,9.64
2023-03-26T14:17:28.330Z,9.64
2023-03-26T14:20:23.786Z,9.64
2023-03-26T14:23:19.618Z,9.46
2023-03-26T14:25:53.664Z,9.40
2023-03-26T14:28:51.465Z,9.37
2023-03-26T14:31:25.279Z,9.33
2023-03-26T14:34:00.137Z,9.22
2023-03-26T14:36:51.008Z,9.20
2023-03-26T14:42:38.698Z,9.32
2023-03-26T14:45:21.966Z,9.27
2023-03-26T14:51:37.342Z,9.28
2023-03-26T14:54:12.209Z,9.27
2023-03-26T14:56:43.556Z,9.13
2023-03-26T14:59:11.253Z,9.06
2023-03-26T15:01:58.644Z,9.04
2023-03-26T15:04:43.671Z,9.06
2023-03-26T15:07:30.227Z,9.08
2023-03-26T15:10:14.267Z,9.09
2023-03-26T15:13:04.320Z,9.06
2023-03-26T15:15:37.548Z,9.08
2023-03-26T15:18:25.449Z,9.11
2023-03-26T15:21:01.870Z,9.16
2023-03-26T15:23:52.065Z,9.15
2023-03-26T15:26:47.417Z,9.16
2023-03-26T15:29:25.369Z,9.10
2023-03-26T15:32:11.950Z,9.15
2023-03-26T15:34:55.403Z,9.11
2023-03-26T15:37:43.641Z,9.10
2023-03-26T15:40:47.466Z,9.07
2023-03-26T15:43:16.303Z,9.08
2023-03-26T15:45:50.894Z,9.06
2023-03-26T15:48:32.342Z,8.97
2023-03-26T15:51:15.479Z,8.95
2023-03-26T15:54:00.108Z,8.93
2023-03-26T15:56:42.084Z,8.88
2023-03-26T15:59:27.031Z,8.78
2023-03-26T16:02:10.069Z,8.69
2023-03-26T16:04:50.693Z,8.62
2023-03-26T16:07:21.894Z,8.62
2023-03-26T16:10:00.797Z,8.57
2023-03-26T16:12:33.141Z,8.56
2023-03-26T16:15:32.088Z,8.55
2023-03-26T16:18:10.291Z,8.57
2023-03-26T16:20:50.964Z,8.52
2023-03-26T16:23:47.851Z,8.53
2023-03-26T16:26:22.974Z,8.46
2023-03-26T16:28:52.865Z,8.39
2023-03-26T16:31:37.713Z,8.35
2023-03-26T16:34:07.162Z,8.36
2023-03-26T16:36:35.374Z,8.34
2023-03-26T16:39:10.763Z,8.30
2023-03-26T16:41:50.025Z,8.25
2023-03-26T16:44:26.326Z,8.16
2023-03-26T16:46:53.979Z,8.12
2023-03-26T16:49:28.354Z,8.10
2023-03-26T16:52:03.604Z,8.10
2023-03-26T16:54:43.513Z,8.11
2023-03-26T16:57:37.020Z,8.10
2023-03-26T17:00:33.166Z,8.08
2023-03-26T17:03:29.342Z,8.05
2023-03-26T17:05:57.595Z,8.01
2023-03-26T17:08:36.556Z,7.94
2023-03-26T17:11:42.554Z,7.92
2023-03-26T17:14:26.347Z,7.81
2023-03-26T17:17:30.665Z,7.75
2023-03-26T17:20:09.461Z,7.68
2023-03-26T17:23:00.684Z,7.69
2023-03-26T17:25:52.030Z,7.67
2023-03-26T17:31:12.095Z,7.69
2023-03-26T17:33:39.594Z,7.63
2023-03-26T17:36:12.620Z,7.65
2023-03-26T17:38:39.337Z,7.66
2023-03-26T17:41:08.316Z,7.66
2023-03-26T17:43:37.022Z,7.66
2023-03-26T17:46:13.212Z,7.60
2023-03-26T17:48:47.079Z,7.58
2023-03-26T17:54:32.954Z,7.48
2023-03-26T17:57:06.361Z,7.46
2023-03-26T17:59:34.117Z,7.46
2023-03-26T18:02:06.619Z,7.41
2023-03-26T18:04:36.771Z,7.38
2023-03-26T18:07:09.586Z,7.38
2023-03-26T18:09:46.876Z,7.32
2023-03-26T18:12:39.322Z,7.25
2023-03-26T18:15:32.102Z,7.15
2023-03-26T18:18:18.041Z,7.06
2023-03-26T18:20:47.234Z,7.07
2023-03-26T18:23:24.021Z,7.07
2023-03-26T18:26:08.397Z,7.07
2023-03-26T18:28:41.914Z,7.07
2023-03-26T18:31:17.007Z,7.03
2023-03-26T18:33:46.680Z,7.03
2023-03-26T18:36:27.744Z,7.07
2023-03-26T18:38:58.932Z,7.07
2023-03-26T18:41:41.824Z,7.06
2023-03-26T18:44:16.015Z,7.10
2023-03-26T18:46:44.652Z,7.10
2023-03-26T18:49:14.707Z,7.09
2023-03-26T18:51:56.184Z,7.06
2023-03-26T18:54:25.467Z,7.05
2023-03-26T18:56:52.882Z,7.03
2023-03-26T18:59:28.412Z,7.01
2023-03-26T19:01:57.780Z,6.94
2023-03-26T19:04:26.746Z,6.91
2023-03-26T19:06:54.898Z,6.86
2023-03-26T19:09:31.538Z,6.82
2023-03-26T19:12:07.144Z,6.81
2023-03-26T19:14:37.124Z,6.79
2023-03-26T19:17:07.064Z,6.78
2023-03-26T19:19:37.398Z,6.75
2023-03-26T19:22:06.490Z,6.74
2023-03-26T19:24:34.137Z,6.74
2023-03-26T19:27:03.291Z,6.75
2023-03-26T19:29:34.580Z,6.74
2023-03-26T19:32:20.141Z,6.71
2023-03-26T19:34:48.419Z,6.67
2023-03-26T19:37:25.264Z,6.64
2023-03-26T19:39:54.269Z,6.69
2023-03-26T19:42:27.180Z,6.66
2023-03-26T19:45:17.994Z,6.62
2023-03-26T19:47:48.560Z,6.62
2023-03-26T19:50:23.373Z,6.67
2023-03-26T19:53:15.370Z,6.65
2023-03-26T19:55:54.685Z,6.68
2023-03-26T19:58:21.511Z,6.62
2023-03-26T20:00:49.286Z,6.58
2023-03-26T20:03:23.043Z,6.57
2023-03-26T20:05:49.706Z,6.54
2023-03-26T20:08:27.328Z,6.55
2023-03-26T20:11:06.972Z,6.52
2023-03-26T20:13:33.676Z,6.49
2023-03-26T20:16:07.634Z,6.51
2023-03-26T20:18:34.965Z,6.50
2023-03-26T20:21:02.155Z,6.48
2023-03-26T20:23:29.989Z,6.46
2023-03-26T20:25:57.114Z,6.44
2023-03-26T20:28:24.507Z,6.44
2023-03-26T20:30:55.267Z,6.40
2023-03-26T20:33:26.707Z,6.43
2023-03-26T20:35:55.477Z,6.44
2023-03-26T20:38:36.565Z,6.41
2023-03-26T20:41:04.240Z,6.38
2023-03-26T20:43:30.932Z,6.35
2023-03-26T20:45:58.581Z,6.35
2023-03-26T20:48:26.630Z,6.31
2023-03-26T20:50:54.067Z,6.30
2023-03-26T20:53:22.166Z,6.27
2023-03-26T20:55:51.073Z,6.24
2023-03-26T20:58:32.056Z,6.21
2023-03-26T21:01:01.612Z,6.17
2023-03-26T21:03:32.019Z,6.13
2023-03-26T21:06:01.650Z,6.13
2023-03-26T21:08:34.866Z,6.10
2023-03-26T21:11:02.833Z,6.10
2023-03-26T21:13:39.129Z,6.05
2023-03-26T21:16:06.650Z,6.06
2023-03-26T21:18:33.909Z,6.03
2023-03-26T21:21:22.476Z,6.02
2023-03-26T21:23:59.430Z,5.96
2023-03-26T21:26:35.673Z,5.89
2023-03-26T21:29:08.752Z,5.92
2023-03-26T21:31:37.783Z,5.88
2023-03-26T21:34:05.517Z,5.84
2023-03-26T21:36:32.614Z,5.82
2023-03-26T21:38:59.710Z,5.84
2023-03-26T21:41:41.379Z,5.83
2023-03-26T21:44:08.587Z,5.80
2023-03-26T21:46:35.896Z,5.79
2023-03-26T21:49:02.862Z,5.76
2023-03-26T21:51:29.989Z,5.76
2023-03-26T21:53:56.867Z,5.75
2023-03-26T21:56:45.574Z,5.76
2023-03-26T21:59:20.003Z,5.75
2023-03-26T22:01:58.759Z,5.77
2023-03-26T22:04:31.064Z,5.80
2023-03-26T22:07:23.540Z,5.81
2023-03-26T22:09:50.462Z,5.84
2023-03-26T22:12:17.764Z,5.83
2023-03-26T22:14:44.892Z,5.85
2023-03-26T22:17:11.627Z,5.85
2023-03-26T22:19:38.494Z,5.87
2023-03-26T22:22:05.307Z,5.87
2023-03-26T22:24:32.131Z,5.81
2023-03-26T22:26:58.717Z,5.74
2023-03-26T22:29:25.372Z,5.77
2023-03-26T22:31:53.144Z,5.80
2023-03-26T22:34:19.936Z,5.81
2023-03-26T22:36:46.802Z,5.84
2023-03-26T22:39:13.689Z,5.82
2023-03-26T22:41:40.503Z,5.79
2023-03-26T22:44:19.262Z,5.77
2023-03-26T22:46:49.449Z,5.76
2023-03-26T22:49:16.717Z,5.81
2023-03-26T22:51:43.737Z,5.75
2023-03-26T22:54:10.428Z,5.71
2023-03-26T22:56:37.249Z,5.72
2023-03-26T22:59:04.083Z,5.71
2023-03-26T23:01:31.194Z,5.65
2023-03-26T23:03:58.070Z,5.60
2023-03-26T23:06:25.137Z,5.59
2023-03-26T23:08:51.823Z,5.58
2023-03-26T23:11:21.966Z,5.60
2023-03-26T23:13:49.488Z,5.64
2023-03-26T23:16:18.555Z,5.68
2023-03-26T23:18:45.189Z,5.65
2023-03-26T23:21:15.147Z,5.66
2023-03-26T23:23:42.505Z,5.67
2023-03-26T23:26:09.221Z,5.66
2023-03-26T23:28:36.138Z,5.67
2023-03-26T23:31:06.691Z,5.68
2023-03-26T23:33:35.829Z,5.71
2023-03-26T23:36:09.951Z,5.72
2023-03-26T23:38:43.817Z,5.72
2023-03-26T23:41:15.470Z,5.72
2023-03-26T23:43:54.163Z,5.71
2023-03-26T23:46:25.167Z,5.69
2023-03-26T23:48:52.263Z,5.69
2023-03-26T23:51:21.004Z,5.70
2023-03-26T23:53:49.619Z,5.69
2023-03-26T23:56:17.129Z,5.68
2023-03-26T23:58:43.799Z,5.65
